createdAt,value
2022-11-15T00:01:58.267Z,6.30
2022-11-15T00:04:25.036Z,5.50
2022-11-15T00:06:51.735Z,5.60
2022-11-15T00:09:18.460Z,5.90
2022-11-15T00:11:45.148Z,6.10
2022-11-15T00:14:11.821Z,4.60
2022-11-15T00:16:38.436Z,4.60
2022-11-15T00:19:04.992Z,4.70
2022-11-15T00:21:31.551Z,4.70
2022-11-15T00:23:59.133Z,4.50
2022-11-15T00:26:25.710Z,4.50
2022-11-15T00:28:53.335Z,4.50
2022-11-15T00:31:19.912Z,4.40
2022-11-15T00:33:46.552Z,4.10
2022-11-15T00:36:13.374Z,4.10
2022-11-15T00:38:40.666Z,4.10
2022-11-15T00:41:09.871Z,4.10
2022-11-15T00:43:36.910Z,4.00
2022-11-15T00:46:03.758Z,4.00
2022-11-15T00:48:30.462Z,4.00
2022-11-15T00:50:57.053Z,4.00
2022-11-15T00:53:23.647Z,4.00
2022-11-15T00:55:50.278Z,4.00
2022-11-15T00:58:16.881Z,3.90
2022-11-15T01:00:45.271Z,3.90
2022-11-15T01:03:11.891Z,4.00
2022-11-15T01:05:38.864Z,4.00
2022-11-15T01:08:05.695Z,4.00
2022-11-15T01:10:32.309Z,3.90
2022-11-15T01:12:58.996Z,3.80
2022-11-15T01:15:25.594Z,3.80
2022-11-15T01:17:52.173Z,3.60
2022-11-15T01:20:19.867Z,3.50
2022-11-15T01:22:46.428Z,3.60
2022-11-15T01:25:13.021Z,3.50
2022-11-15T01:27:39.895Z,3.70
2022-11-15T01:30:06.900Z,3.70
2022-11-15T01:32:33.496Z,3.70
2022-11-15T01:35:00.066Z,3.70
2022-11-15T01:37:26.630Z,3.90
2022-11-15T01:39:54.222Z,3.70
2022-11-15T01:42:20.874Z,3.80
2022-11-15T01:47:14.819Z,3.90
2022-11-15T01:49:46.624Z,4.00
2022-11-15T01:52:16.008Z,3.90
2022-11-15T01:54:43.125Z,4.10
2022-11-15T01:57:11.921Z,4.00
2022-11-15T01:59:41.406Z,4.00
2022-11-15T02:02:08.525Z,4.10
2022-11-15T02:04:38.863Z,4.10
2022-11-15T02:07:06.338Z,4.10
2022-11-15T02:09:33.079Z,4.40
2022-11-15T02:12:00.286Z,4.40
2022-11-15T02:17:30.139Z,4.30
2022-11-15T02:23:40.553Z,4.50
2022-11-15T02:26:33.945Z,4.30
2022-11-15T02:29:15.238Z,4.50
2022-11-15T02:31:41.868Z,4.60
2022-11-15T02:34:22.720Z,4.60
2022-11-15T02:37:08.289Z,4.70
2022-11-15T02:39:45.585Z,4.70
2022-11-15T02:42:43.183Z,4.70
2022-11-15T02:45:11.632Z,4.70
2022-11-15T02:47:43.508Z,4.70
2022-11-15T02:50:11.660Z,4.80
2022-11-15T02:52:38.225Z,5.10
2022-11-15T02:55:05.037Z,5.10
2022-11-15T02:57:34.374Z,5.20
2022-11-15T03:00:00.948Z,5.30
2022-11-15T03:02:56.883Z,5.30
2022-11-15T03:05:42.020Z,5.30
2022-11-15T03:08:16.812Z,5.30
2022-11-15T03:10:46.590Z,5.40
2022-11-15T03:13:22.088Z,5.20
2022-11-15T03:15:54.925Z,5.20
2022-11-15T03:18:23.351Z,5.20
2022-11-15T03:20:50.651Z,5.20
2022-11-15T03:23:18.000Z,5.40
2022-11-15T03:25:46.959Z,5.60
2022-11-15T03:28:17.283Z,5.60
2022-11-15T03:30:44.911Z,5.70
2022-11-15T03:33:11.917Z,5.70
2022-11-15T03:35:40.186Z,5.80
2022-11-15T03:38:20.614Z,5.80
2022-11-15T03:41:00.542Z,5.80
2022-11-15T03:43:48.833Z,6.00
2022-11-15T03:46:17.343Z,6.10
2022-11-15T03:48:45.900Z,6.40
2022-11-15T03:51:12.779Z,6.40
2022-11-15T03:53:39.421Z,6.50
2022-11-15T03:56:06.134Z,5.60
2022-11-15T03:58:32.765Z,6.70
2022-11-15T04:01:00.473Z,5.60
2022-11-15T04:03:27.180Z,5.10
2022-11-15T04:05:53.744Z,5.40
2022-11-15T04:08:20.357Z,5.50
2022-11-15T04:10:49.359Z,7.00
2022-11-15T04:13:16.050Z,5.50
2022-11-15T04:15:42.625Z,5.00
2022-11-15T04:18:09.196Z,5.20
2022-11-15T04:20:54.525Z,5.40
2022-11-15T04:23:41.172Z,5.40
2022-11-15T04:26:11.022Z,5.50
2022-11-15T04:28:57.693Z,5.40
2022-11-15T04:31:24.263Z,5.40
2022-11-15T04:33:50.870Z,5.30
2022-11-15T04:36:36.312Z,5.30
2022-11-15T04:39:02.984Z,5.20
2022-11-15T04:41:30.114Z,5.10
2022-11-15T04:43:56.880Z,5.00
2022-11-15T04:46:24.585Z,5.00
2022-11-15T04:48:56.946Z,4.90
2022-11-15T04:51:25.036Z,4.80
2022-11-15T04:53:51.627Z,4.80
2022-11-15T04:56:18.226Z,4.70
2022-11-15T04:58:44.809Z,4.70
2022-11-15T05:01:13.029Z,4.60
2022-11-15T05:03:58.608Z,4.60
2022-11-15T05:06:25.183Z,4.50
2022-11-15T05:08:52.168Z,4.40
2022-11-15T05:11:18.740Z,4.40
2022-11-15T05:13:45.340Z,4.40
2022-11-15T05:16:11.938Z,4.30
2022-11-15T05:18:41.545Z,4.30
2022-11-15T05:21:09.788Z,4.30
2022-11-15T05:23:36.383Z,4.20
2022-11-15T05:26:09.036Z,4.10
2022-11-15T05:28:37.359Z,4.10
2022-11-15T05:31:04.009Z,4.00
2022-11-15T05:33:31.182Z,4.00
2022-11-15T05:36:04.224Z,3.80
2022-11-15T05:38:30.801Z,3.80
2022-11-15T05:40:57.408Z,3.80
2022-11-15T05:43:24.734Z,3.70
2022-11-15T05:45:51.455Z,3.80
2022-11-15T05:48:18.533Z,3.80
2022-11-15T05:50:47.300Z,3.70
2022-11-15T05:53:15.610Z,3.70
2022-11-15T05:55:42.468Z,3.60
2022-11-15T05:58:09.064Z,3.60
2022-11-15T06:00:35.657Z,3.40
2022-11-15T06:03:02.253Z,3.30
2022-11-15T06:05:28.837Z,3.30
2022-11-15T06:07:58.354Z,3.20
2022-11-15T06:10:25.052Z,3.20
2022-11-15T06:13:01.735Z,3.20
2022-11-15T06:15:28.342Z,3.20
2022-11-15T06:18:01.174Z,3.10
2022-11-15T06:20:28.899Z,3.10
2022-11-15T06:22:59.435Z,3.00
2022-11-15T06:25:26.805Z,3.10
2022-11-15T06:27:53.973Z,3.10
2022-11-15T06:30:20.825Z,3.10
2022-11-15T06:32:47.538Z,3.00
2022-11-15T06:35:14.602Z,3.10
2022-11-15T06:37:41.444Z,3.20
2022-11-15T06:40:09.092Z,3.20
2022-11-15T06:42:35.673Z,3.20
2022-11-15T06:45:02.281Z,3.20
2022-11-15T06:47:28.823Z,3.30
2022-11-15T06:49:55.435Z,3.30
2022-11-15T06:52:22.684Z,3.30
2022-11-15T06:54:49.264Z,3.20
2022-11-15T06:57:15.833Z,3.10
2022-11-15T06:59:42.434Z,3.20
2022-11-15T07:02:15.210Z,3.10
2022-11-15T07:04:41.836Z,3.20
2022-11-15T07:07:08.505Z,3.20
2022-11-15T07:09:35.194Z,3.30
2022-11-15T07:12:07.328Z,3.50
2022-11-15T07:14:35.395Z,3.30
2022-11-15T07:17:04.070Z,3.30
2022-11-15T07:19:30.652Z,3.20
2022-11-15T07:21:57.260Z,3.10
2022-11-15T07:24:23.895Z,3.10
2022-11-15T07:26:50.576Z,3.10
2022-11-15T07:29:17.420Z,3.20
2022-11-15T07:31:43.976Z,3.40
2022-11-15T07:34:10.992Z,3.60
2022-11-15T07:36:37.604Z,3.60
2022-11-15T07:39:04.243Z,3.80
2022-11-15T07:41:30.961Z,3.90
2022-11-15T07:43:58.489Z,3.80
2022-11-15T07:46:25.133Z,3.90
2022-11-15T07:49:08.203Z,4.10
2022-11-15T07:54:46.707Z,4.10
2022-11-15T08:03:33.056Z,4.80
2022-11-15T08:16:41.061Z,5.50
2022-11-15T08:25:42.826Z,5.80
2022-11-15T08:31:01.045Z,5.90
2022-11-15T08:35:59.117Z,6.60
2022-11-15T08:38:25.787Z,6.80
2022-11-15T08:40:53.004Z,6.90
2022-11-15T08:43:20.014Z,7.00
2022-11-15T08:45:49.297Z,7.20
2022-11-15T08:48:24.022Z,8.30
2022-11-15T08:50:54.383Z,7.50
2022-11-15T08:53:20.986Z,7.90
2022-11-15T08:55:47.559Z,7.90
2022-11-15T09:00:41.160Z,8.30
2022-11-15T09:08:06.576Z,9.10
2022-11-15T09:10:40.422Z,9.20
2022-11-15T09:13:07.019Z,9.30
2022-11-15T09:15:33.735Z,9.40
2022-11-15T09:18:00.486Z,9.60
2022-11-15T09:40:03.455Z,11.10
2022-11-15T09:42:45.731Z,11.00
2022-11-15T09:45:24.609Z,11.40
2022-11-15T09:47:57.279Z,11.60
2022-11-15T09:50:37.392Z,11.60
2022-11-15T09:55:42.023Z,11.50
2022-11-15T09:58:21.566Z,11.40
2022-11-15T10:01:00.428Z,11.50
2022-11-15T10:05:56.647Z,12.50
2022-11-15T10:08:32.955Z,12.60
2022-11-15T10:13:50.426Z,12.50
2022-11-15T10:16:27.368Z,12.40
2022-11-15T10:18:59.725Z,12.60
2022-11-15T10:21:33.579Z,13.00
2022-11-15T10:24:00.375Z,11.80
2022-11-15T10:26:27.431Z,12.30
2022-11-15T10:28:54.106Z,12.20
2022-11-15T10:31:28.557Z,12.30
2022-11-15T10:34:12.685Z,12.50
2022-11-15T10:36:39.365Z,12.30
2022-11-15T10:39:06.026Z,12.70
2022-11-15T10:41:35.731Z,13.30
2022-11-15T10:44:02.400Z,13.00
2022-11-15T10:46:46.279Z,13.00
2022-11-15T10:49:20.159Z,14.60
2022-11-15T10:51:50.965Z,13.90
2022-11-15T10:54:25.558Z,14.00
2022-11-15T10:56:54.103Z,13.50
2022-11-15T10:59:47.494Z,13.80
2022-11-15T11:02:29.193Z,13.70
2022-11-15T11:05:01.117Z,13.50
2022-11-15T11:07:53.290Z,14.00
2022-11-15T11:11:02.754Z,14.30
2022-11-15T11:13:56.622Z,14.50
2022-11-15T11:16:36.403Z,14.70
2022-11-15T12:10:50.059Z,16.10
2022-11-15T12:13:22.410Z,15.70
2022-11-15T12:16:01.521Z,15.70
2022-11-15T12:18:30.915Z,15.90
2022-11-15T12:21:00.539Z,16.20
2022-11-15T12:23:32.737Z,15.70
2022-11-15T12:26:03.590Z,15.40
2022-11-15T12:28:53.179Z,14.90
2022-11-15T12:31:49.933Z,14.70
2022-11-15T12:34:16.600Z,14.60
2022-11-15T12:36:46.061Z,14.90
2022-11-15T12:39:13.191Z,14.30
2022-11-15T12:41:41.124Z,14.10
2022-11-15T12:44:34.055Z,14.30
2022-11-15T12:47:03.228Z,13.90
2022-11-15T12:49:29.866Z,13.80
2022-11-15T12:51:59.061Z,13.90
2022-11-15T12:54:25.691Z,14.00
2022-11-15T12:57:04.522Z,14.30
2022-11-15T12:59:50.706Z,13.70
2022-11-15T13:02:25.269Z,13.80
2022-11-15T13:04:52.862Z,13.60
2022-11-15T13:07:38.960Z,14.10
2022-11-15T13:10:15.022Z,13.80
2022-11-15T13:12:44.817Z,13.80
2022-11-15T13:15:14.511Z,13.90
2022-11-15T13:17:44.031Z,13.90
2022-11-15T13:20:16.751Z,14.60
2022-11-15T13:22:52.478Z,14.10
2022-11-15T13:25:40.647Z,14.20
2022-11-15T13:28:10.360Z,14.30
2022-11-15T13:30:37.804Z,14.60
2022-11-15T13:33:15.854Z,15.40
2022-11-15T13:35:46.084Z,16.80
2022-11-15T13:38:19.440Z,17.60
2022-11-15T13:40:46.209Z,18.00
2022-11-15T13:43:22.061Z,18.20
2022-11-15T13:46:08.460Z,18.60
2022-11-15T13:48:35.579Z,18.50
2022-11-15T13:51:03.912Z,17.70
2022-11-15T13:53:32.429Z,17.20
2022-11-15T13:55:59.327Z,17.00
2022-11-15T13:58:26.261Z,17.60
2022-11-15T14:00:59.974Z,17.90
2022-11-15T14:09:55.754Z,16.30
2022-11-15T14:16:33.164Z,15.30
2022-11-15T14:18:59.883Z,14.70
2022-11-15T14:21:26.476Z,14.50
2022-11-15T14:23:53.136Z,14.80
2022-11-15T14:26:30.259Z,16.20
2022-11-15T14:28:56.941Z,17.30
2022-11-15T14:31:23.699Z,19.10
2022-11-15T14:33:50.470Z,19.30
2022-11-15T14:36:18.485Z,18.20
2022-11-15T14:38:45.215Z,17.50
2022-11-15T14:41:17.486Z,16.90
2022-11-15T14:43:44.216Z,16.40
2022-11-15T14:46:10.881Z,16.40
2022-11-15T14:48:37.538Z,15.60
2022-11-15T14:51:04.364Z,15.00
2022-11-15T14:53:30.936Z,14.60
2022-11-15T14:55:57.539Z,14.00
2022-11-15T14:58:24.141Z,13.90
2022-11-15T15:00:51.070Z,13.90
2022-11-15T15:03:18.337Z,14.80
2022-11-15T15:05:45.112Z,13.50
2022-11-15T15:08:12.021Z,13.20
2022-11-15T15:10:41.645Z,13.80
2022-11-15T15:15:36.956Z,12.50
2022-11-15T15:18:05.037Z,12.10
2022-11-15T15:22:58.797Z,12.00
2022-11-15T15:25:29.686Z,12.40
2022-11-15T15:32:52.331Z,11.40
2022-11-15T15:35:19.388Z,11.30
2022-11-15T15:37:47.285Z,11.70
2022-11-15T15:40:16.466Z,11.80
2022-11-15T15:42:43.166Z,11.00
2022-11-15T15:45:10.220Z,10.80
2022-11-15T15:47:36.966Z,10.50
2022-11-15T15:50:04.236Z,10.20
2022-11-15T15:52:30.982Z,10.20
2022-11-15T15:54:57.645Z,10.20
2022-11-15T15:59:51.364Z,9.90
2022-11-15T16:02:18.016Z,9.80
2022-11-15T16:04:44.666Z,10.50
2022-11-15T16:07:22.205Z,9.60
2022-11-15T16:10:01.136Z,9.60
2022-11-15T16:12:32.110Z,10.40
2022-11-15T16:14:58.949Z,9.50
2022-11-15T16:17:32.804Z,9.30
2022-11-15T16:20:00.903Z,9.30
2022-11-15T16:22:29.555Z,9.30
2022-11-15T16:24:56.394Z,9.20
2022-11-15T16:27:23.469Z,9.20
2022-11-15T16:29:50.543Z,9.10
2022-11-15T16:32:17.315Z,9.10
2022-11-15T16:34:48.691Z,9.00
2022-11-15T16:37:24.906Z,9.00
2022-11-15T16:39:52.645Z,9.10
2022-11-15T16:42:20.502Z,9.10
2022-11-15T16:44:47.452Z,9.10
2022-11-15T16:47:20.403Z,9.10
2022-11-15T16:49:47.335Z,9.10
2022-11-15T16:52:17.498Z,9.00
2022-11-15T16:54:46.803Z,9.00
2022-11-15T16:57:13.386Z,9.00
2022-11-15T16:59:40.036Z,8.90
2022-11-15T17:02:11.896Z,8.80
2022-11-15T17:04:38.498Z,8.90
2022-11-15T17:07:05.125Z,8.90
2022-11-15T17:13:12.427Z,9.00
2022-11-15T17:15:39.043Z,9.00
2022-11-15T17:18:06.471Z,9.10
2022-11-15T17:23:40.850Z,9.10
2022-11-15T17:32:20.817Z,9.20
2022-11-15T17:34:47.406Z,9.30
2022-11-15T17:37:14.040Z,9.30
2022-11-15T17:39:40.616Z,9.30
2022-11-15T17:42:07.267Z,9.30
2022-11-15T17:44:33.877Z,9.20
2022-11-15T17:47:00.554Z,9.20
2022-11-15T17:52:10.926Z,9.10
2022-11-15T17:54:46.720Z,9.80
2022-11-15T17:57:13.497Z,9.10
2022-11-15T17:59:40.079Z,9.00
2022-11-15T18:02:06.684Z,9.00
2022-11-15T18:04:33.310Z,9.00
2022-11-15T18:07:00.333Z,8.90
2022-11-15T18:09:27.011Z,9.00
2022-11-15T18:11:54.689Z,9.00
2022-11-15T18:14:21.334Z,9.00
2022-11-15T18:16:47.988Z,9.00
